Time;durP1;ratioP1;P1;durP2;ratioP2;P2;SDS_P1;SDS_P2;PMS_P1;PMS_P2;Temp;Humidity;BMP_temperature;BMP_pressure;BME280_temperature;BME280_humidity;BME280_pressure;Samples;Min_cycle;Max_cycle;Signal;HPM_P1;HPM_P2
2022/04/29 00:02:16;;;;;;;7.65;6.60;;;;;;;;;;5012085;28;20054;-71
2022/04/29 00:04:43;;;;;;;7.60;6.38;;;;;;;;;;5012776;28;20050;-71
2022/04/29 00:07:11;;;;;;;7.35;6.63;;;;;;;;;;5012435;28;20058;-71
2022/04/29 00:09:37;;;;;;;7.93;6.55;;;;;;;;;;5011179;28;20053;-71
2022/04/29 00:12:06;;;;;;;7.70;6.47;;;;;;;;;;5012187;28;20081;-71
2022/04/29 00:14:33;;;;;;;10.32;8.25;;;;;;;;;;5020055;28;20046;-71
2022/04/29 00:17:00;;;;;;;9.38;6.63;;;;;;;;;;5012392;28;20061;-71
2022/04/29 00:19:26;;;;;;;12.35;6.70;;;;;;;;;;5012286;28;20132;-71
2022/04/29 00:21:53;;;;;;;8.95;6.75;;;;;;;;;;5012500;28;20558;-71
2022/04/29 00:24:19;;;;;;;8.63;6.68;;;;;;;;;;5030752;28;20057;-72
2022/04/29 00:26:46;;;;;;;7.78;6.97;;;;;;;;;;5026047;28;20104;-71
2022/04/29 00:29:13;;;;;;;8.52;6.70;;;;;;;;;;5010923;28;20050;-71
2022/04/29 00:31:39;;;;;;;8.95;6.88;;;;;;;;;;5010967;28;20050;-71
2022/04/29 00:34:06;;;;;;;9.45;7.03;;;;;;;;;;5011994;28;20053;-71
2022/04/29 00:36:33;;;;;;;8.68;6.63;;;;;;;;;;5011942;28;20049;-71
2022/04/29 00:39:00;;;;;;;7.28;6.55;;;;;;;;;;5012037;28;20443;-71
2022/04/29 00:41:27;;;;;;;7.40;6.70;;;;;;;;;;5013896;28;20041;-71
2022/04/29 00:44:08;;;;;;;8.65;7.15;;;;;;;;;;5016458;28;20046;-71
2022/04/29 00:46:39;;;;;;;8.65;7.15;;;;;;;;;;5016461;28;20489;-71
2022/04/29 00:49:08;;;;;;;10.77;6.95;;;;;;;;;;5015941;28;20115;-71
2022/04/29 00:51:34;;;;;;;11.32;6.65;;;;;;;;;;5015907;28;20100;-71
2022/04/29 00:54:02;;;;;;;8.68;6.95;;;;;;;;;;5015855;28;20108;-71
2022/04/29 00:56:30;;;;;;;8.57;7.57;;;;;;;;;;5015805;28;20064;-71
2022/04/29 00:59:09;;;;;;;8.90;6.60;;;;;;;;;;5015740;28;20547;-71
2022/04/29 01:01:37;;;;;;;8.30;6.70;;;;;;;;;;5015601;28;20124;-71
2022/04/29 01:04:04;;;;;;;9.70;7.80;;;;;;;;;;5014455;28;20563;-71
2022/04/29 01:06:31;;;;;;;10.50;6.55;;;;;;;;;;5015529;28;20058;-71
2022/04/29 01:08:57;;;;;;;7.47;6.78;;;;;;;;;;5015410;28;20187;-71
2022/04/29 01:11:25;;;;;;;8.55;6.70;;;;;;;;;;5015478;28;20104;-71
2022/04/29 01:13:52;;;;;;;8.65;7.32;;;;;;;;;;5015304;28;20053;-71
2022/04/29 01:16:20;;;;;;;10.13;7.70;;;;;;;;;;5015187;28;20505;-70
2022/04/29 01:18:52;;;;;;;8.07;7.28;;;;;;;;;;5015156;28;20077;-71
2022/04/29 01:21:19;;;;;;;8.52;7.53;;;;;;;;;;5030861;28;20049;-70
2022/04/29 01:23:46;;;;;;;8.52;7.43;;;;;;;;;;5035263;28;20263;-71
2022/04/29 01:26:15;;;;;;;8.90;7.22;;;;;;;;;;5035128;28;20103;-71
2022/04/29 01:28:44;;;;;;;11.55;7.60;;;;;;;;;;5032598;28;20053;-71
2022/04/29 01:31:14;;;;;;;9.18;7.82;;;;;;;;;;5034877;28;20424;-71
2022/04/29 01:33:42;;;;;;;8.25;7.10;;;;;;;;;;5034649;28;20072;-71
2022/04/29 01:36:09;;;;;;;10.25;7.28;;;;;;;;;;5033661;28;20057;-71
2022/04/29 01:38:37;;;;;;;8.95;7.85;;;;;;;;;;5034928;28;20049;-71
2022/04/29 01:41:05;;;;;;;8.65;7.75;;;;;;;;;;5034583;28;20045;-71
2022/04/29 01:43:32;;;;;;;9.93;8.57;;;;;;;;;;5034625;28;20049;-71
2022/04/29 01:45:59;;;;;;;8.85;7.57;;;;;;;;;;5035028;28;20053;-71
2022/04/29 01:48:26;;;;;;;9.63;7.95;;;;;;;;;;5034475;28;20053;-71
2022/04/29 01:50:53;;;;;;;8.75;7.30;;;;;;;;;;5034537;28;20053;-71
2022/04/29 01:53:19;;;;;;;11.52;8.27;;;;;;;;;;5034523;28;20059;-71
2022/04/29 01:55:46;;;;;;;9.38;7.72;;;;;;;;;;5034883;28;20052;-71
2022/04/29 01:58:13;;;;;;;10.93;7.95;;;;;;;;;;5029098;28;20050;-71
2022/04/29 02:00:40;;;;;;;8.73;7.38;;;;;;;;;;5014411;28;20050;-70
2022/04/29 02:03:06;;;;;;;11.43;7.18;;;;;;;;;;5014538;28;20054;-71
2022/04/29 02:05:33;;;;;;;8.38;7.07;;;;;;;;;;5014311;28;20108;-71
2022/04/29 02:08:00;;;;;;;8.48;7.53;;;;;;;;;;5014432;28;20050;-71
2022/04/29 02:10:27;;;;;;;9.57;7.75;;;;;;;;;;5014665;28;20394;-71
2022/04/29 02:12:54;;;;;;;9.32;7.80;;;;;;;;;;5014110;28;20422;-71
2022/04/29 02:15:21;;;;;;;8.63;7.80;;;;;;;;;;5014500;28;20129;-71
2022/04/29 02:17:48;;;;;;;9.50;7.80;;;;;;;;;;5014156;28;20053;-71
2022/04/29 02:20:14;;;;;;;9.30;8.27;;;;;;;;;;5014343;28;20528;-70
2022/04/29 02:22:41;;;;;;;9.57;8.52;;;;;;;;;;5014099;28;20050;-71
2022/04/29 02:25:08;;;;;;;10.90;7.75;;;;;;;;;;5014317;28;20046;-70
2022/04/29 02:27:36;;;;;;;14.05;8.15;;;;;;;;;;5014090;28;20413;-70
2022/04/29 02:30:04;;;;;;;8.15;7.07;;;;;;;;;;5032691;28;20049;-71
2022/04/29 02:32:31;;;;;;;9.25;8.25;;;;;;;;;;5033476;28;20045;-71
2022/04/29 02:35:00;;;;;;;16.02;8.77;;;;;;;;;;5033941;28;20050;-71
2022/04/29 02:37:27;;;;;;;10.27;7.72;;;;;;;;;;5034102;28;20075;-72
2022/04/29 02:39:54;;;;;;;9.98;8.30;;;;;;;;;;5016203;28;20054;-72
2022/04/29 02:42:21;;;;;;;9.90;8.90;;;;;;;;;;5013529;28;20050;-72
2022/04/29 02:44:47;;;;;;;9.10;7.53;;;;;;;;;;5013692;28;20053;-72
2022/04/29 02:47:14;;;;;;;11.07;7.72;;;;;;;;;;5014034;28;20095;-72
2022/04/29 02:49:42;;;;;;;9.60;7.97;;;;;;;;;;5013968;28;20057;-73
2022/04/29 02:52:11;;;;;;;9.07;8.18;;;;;;;;;;5013533;28;20060;-72
2022/04/29 02:54:38;;;;;;;10.55;7.80;;;;;;;;;;5013642;28;20476;-72
2022/04/29 02:57:05;;;;;;;9.18;8.02;;;;;;;;;;5012386;28;20050;-71
2022/04/29 02:59:32;;;;;;;14.63;7.65;;;;;;;;;;5013431;28;20062;-73
2022/04/29 03:01:58;;;;;;;8.93;8.07;;;;;;;;;;5031885;28;20045;-72
2022/04/29 03:04:25;;;;;;;10.05;7.90;;;;;;;;;;5032805;28;20053;-72
2022/04/29 03:06:53;;;;;;;10.75;8.38;;;;;;;;;;5033334;28;20103;-72
2022/04/29 03:09:20;;;;;;;8.38;7.47;;;;;;;;;;5032989;28;20050;-72
2022/04/29 03:11:48;;;;;;;7.80;7.00;;;;;;;;;;5032737;28;20059;-72
2022/04/29 03:14:14;;;;;;;11.20;7.82;;;;;;;;;;5027763;28;20041;-72
2022/04/29 03:16:48;;;;;;;10.25;8.00;;;;;;;;;;5022759;28;20053;-73
2022/04/29 03:19:15;;;;;;;9.02;8.05;;;;;;;;;;5023701;28;20053;-72
2022/04/29 03:21:41;;;;;;;8.95;8.05;;;;;;;;;;5022254;28;20047;-72
2022/04/29 03:24:08;;;;;;;9.30;7.57;;;;;;;;;;5021734;28;20049;-72
2022/04/29 03:26:38;;;;;;;12.68;8.05;;;;;;;;;;5022773;28;20523;-73
2022/04/29 03:29:05;;;;;;;9.10;8.07;;;;;;;;;;5024244;28;20057;-72
2022/04/29 03:31:32;;;;;;;8.73;7.85;;;;;;;;;;5021316;28;20125;-72
2022/04/29 03:33:58;;;;;;;10.15;8.02;;;;;;;;;;5023060;28;20042;-71
2022/04/29 03:36:25;;;;;;;9.18;8.27;;;;;;;;;;5022434;28;20058;-72
2022/04/29 03:38:52;;;;;;;11.35;8.23;;;;;;;;;;5021412;28;20531;-72
2022/04/29 03:41:19;;;;;;;9.45;7.80;;;;;;;;;;5021239;28;20042;-72
2022/04/29 03:43:46;;;;;;;11.10;8.65;;;;;;;;;;5021806;28;20056;-72
2022/04/29 03:46:13;;;;;;;10.48;8.90;;;;;;;;;;5023028;28;20052;-72
2022/04/29 03:51:25;;;;;;;8.50;7.70;;;;;;;;;;5022123;28;20413;-72
2022/04/29 03:53:51;;;;;;;9.68;8.50;;;;;;;;;;5020587;28;20046;-73
2022/04/29 03:56:19;;;;;;;8.98;7.90;;;;;;;;;;5020503;28;20049;-71
2022/04/29 03:58:45;;;;;;;11.95;8.77;;;;;;;;;;5022862;28;20530;-72
2022/04/29 04:01:12;;;;;;;11.02;8.65;;;;;;;;;;5024357;28;20404;-73
2022/04/29 04:03:40;;;;;;;9.13;8.23;;;;;;;;;;5023473;28;20095;-72
2022/04/29 04:08:55;;;;;;;13.23;8.90;;;;;;;;;;5026631;28;20042;-72
2022/04/29 04:11:22;;;;;;;10.48;8.70;;;;;;;;;;5023556;28;20037;-72
2022/04/29 04:13:50;;;;;;;9.20;8.23;;;;;;;;;;5025882;28;20085;-72
2022/04/29 04:16:17;;;;;;;11.38;8.80;;;;;;;;;;5021341;28;20045;-72
2022/04/29 04:18:44;;;;;;;9.25;8.23;;;;;;;;;;5021229;28;20053;-72
2022/04/29 04:21:10;;;;;;;9.40;8.40;;;;;;;;;;5021019;28;20050;-72
2022/04/29 04:23:37;;;;;;;9.25;8.25;;;;;;;;;;5028722;28;20087;-72
2022/04/29 04:26:04;;;;;;;8.73;7.93;;;;;;;;;;5031800;28;20060;-72
2022/04/29 04:28:30;;;;;;;12.05;9.48;;;;;;;;;;5031804;28;20409;-72
2022/04/29 04:30:57;;;;;;;8.88;7.93;;;;;;;;;;5031447;28;20056;-72
2022/04/29 04:33:24;;;;;;;8.98;8.02;;;;;;;;;;5031581;28;20084;-72
2022/04/29 04:35:50;;;;;;;10.50;8.55;;;;;;;;;;5031672;28;20079;-72
2022/04/29 04:38:17;;;;;;;11.85;8.27;;;;;;;;;;5046995;28;20054;-72
2022/04/29 04:40:44;;;;;;;8.40;7.50;;;;;;;;;;5031642;28;20475;-74
2022/04/29 04:43:15;;;;;;;10.80;8.43;;;;;;;;;;5020890;28;20046;-72
2022/04/29 04:45:42;;;;;;;9.25;7.88;;;;;;;;;;5011753;28;20049;-72
2022/04/29 04:48:09;;;;;;;10.00;8.25;;;;;;;;;;5011770;28;20137;-72
2022/04/29 04:50:35;;;;;;;9.30;8.40;;;;;;;;;;5012007;28;20054;-73
2022/04/29 04:53:02;;;;;;;10.95;8.10;;;;;;;;;;5011717;28;20100;-72
2022/04/29 04:55:28;;;;;;;12.30;7.68;;;;;;;;;;5011892;28;20417;-72
2022/04/29 04:57:55;;;;;;;9.13;7.78;;;;;;;;;;5011800;28;20050;-72
2022/04/29 05:00:22;;;;;;;10.35;7.88;;;;;;;;;;5011978;28;20060;-72
2022/04/29 05:02:48;;;;;;;9.00;7.47;;;;;;;;;;5011498;28;20493;-72
2022/04/29 05:05:15;;;;;;;8.13;7.32;;;;;;;;;;5011693;28;20497;-72
2022/04/29 05:07:42;;;;;;;10.30;7.95;;;;;;;;;;5011639;28;20416;-73
2022/04/29 05:10:09;;;;;;;8.77;7.85;;;;;;;;;;5011773;28;20050;-72
2022/04/29 05:12:43;;;;;;;8.27;7.35;;;;;;;;;;5011843;28;20073;-73
2022/04/29 05:15:10;;;;;;;10.90;7.07;;;;;;;;;;5010814;28;20240;-72
2022/04/29 05:17:40;;;;;;;9.60;8.60;;;;;;;;;;5015045;28;20061;-72
2022/04/29 05:20:11;;;;;;;10.05;7.85;;;;;;;;;;5031438;28;20086;-72
2022/04/29 05:22:38;;;;;;;8.73;7.78;;;;;;;;;;5031012;28;20052;-73
2022/04/29 05:25:06;;;;;;;9.13;8.23;;;;;;;;;;5031080;28;20065;-72
2022/04/29 05:27:32;;;;;;;11.55;8.15;;;;;;;;;;5033013;28;20053;-70
2022/04/29 05:29:59;;;;;;;13.05;8.82;;;;;;;;;;5035338;28;20056;-69
2022/04/29 05:32:33;;;;;;;9.20;8.27;;;;;;;;;;5034576;28;20053;-69
2022/04/29 05:35:00;;;;;;;10.38;7.97;;;;;;;;;;5034976;28;20421;-69
2022/04/29 05:37:27;;;;;;;11.23;8.43;;;;;;;;;;5033436;28;20053;-71
2022/04/29 05:42:40;;;;;;;12.57;7.82;;;;;;;;;;5034506;28;20050;-71
2022/04/29 05:45:08;;;;;;;10.57;8.02;;;;;;;;;;5034309;28;20083;-68
2022/04/29 05:47:34;;;;;;;9.25;8.35;;;;;;;;;;5034109;28;20057;-74
2022/04/29 05:50:01;;;;;;;10.50;7.93;;;;;;;;;;5034519;28;20053;-71
2022/04/29 05:52:28;;;;;;;10.45;8.57;;;;;;;;;;5034729;28;20053;-71
2022/04/29 05:54:54;;;;;;;8.68;7.68;;;;;;;;;;5034606;28;20072;-69
2022/04/29 05:57:21;;;;;;;8.73;7.30;;;;;;;;;;5034387;28;20189;-71
2022/04/29 05:59:47;;;;;;;8.82;7.97;;;;;;;;;;5030222;28;20049;-70
2022/04/29 06:02:14;;;;;;;11.27;7.57;;;;;;;;;;5033811;28;20044;-69
2022/04/29 06:04:41;;;;;;;10.73;8.43;;;;;;;;;;5037534;28;20408;-73
2022/04/29 06:07:08;;;;;;;11.05;7.75;;;;;;;;;;5033904;28;20492;-74
2022/04/29 06:09:34;;;;;;;11.48;7.97;;;;;;;;;;5033654;28;20053;-76
2022/04/29 06:12:02;;;;;;;10.43;7.90;;;;;;;;;;5033417;28;20132;-76
2022/04/29 06:14:29;;;;;;;9.18;8.30;;;;;;;;;;5032869;28;20115;-76
2022/04/29 06:16:55;;;;;;;9.65;8.65;;;;;;;;;;5034044;28;20052;-76
2022/04/29 06:19:22;;;;;;;9.25;8.30;;;;;;;;;;5033141;28;20056;-77
2022/04/29 06:21:49;;;;;;;10.63;8.73;;;;;;;;;;5033944;28;20042;-76
2022/04/29 06:24:15;;;;;;;9.65;8.73;;;;;;;;;;5032951;28;20053;-76
2022/04/29 06:26:42;;;;;;;9.35;8.30;;;;;;;;;;5033776;28;20053;-74
2022/04/29 06:29:09;;;;;;;11.23;8.25;;;;;;;;;;5019394;28;20050;-75
2022/04/29 06:31:36;;;;;;;10.52;8.10;;;;;;;;;;5017894;28;20056;-74
2022/04/29 06:34:03;;;;;;;8.82;7.97;;;;;;;;;;5014139;28;20105;-74
2022/04/29 06:36:29;;;;;;;9.68;8.48;;;;;;;;;;5013133;28;20057;-72
2022/04/29 06:38:56;;;;;;;8.85;7.88;;;;;;;;;;5013086;28;20498;-71
2022/04/29 06:41:23;;;;;;;11.13;8.10;;;;;;;;;;5012203;28;20061;-72
2022/04/29 06:43:50;;;;;;;10.35;8.65;;;;;;;;;;5011865;28;20053;-71
2022/04/29 06:46:17;;;;;;;9.75;8.75;;;;;;;;;;5011382;28;20053;-72
2022/04/29 06:48:45;;;;;;;9.35;8.35;;;;;;;;;;5011865;28;20053;-71
2022/04/29 06:51:12;;;;;;;13.93;7.95;;;;;;;;;;5011521;28;20093;-72
2022/04/29 06:53:41;;;;;;;10.10;7.97;;;;;;;;;;5011418;28;20046;-72
2022/04/29 06:56:09;;;;;;;9.07;7.55;;;;;;;;;;5011373;28;20141;-71
2022/04/29 06:58:36;;;;;;;9.95;8.80;;;;;;;;;;5011663;28;20060;-71
2022/04/29 07:01:02;;;;;;;8.85;7.35;;;;;;;;;;5011002;28;20057;-72
2022/04/29 07:03:29;;;;;;;8.10;7.15;;;;;;;;;;5011231;28;20081;-72
2022/04/29 07:05:59;;;;;;;10.10;7.32;;;;;;;;;;5011136;28;20556;-72
2022/04/29 07:08:26;;;;;;;14.48;7.95;;;;;;;;;;5010803;28;20050;-71
2022/04/29 07:10:52;;;;;;;10.57;7.05;;;;;;;;;;5010067;28;20056;-72
2022/04/29 07:13:19;;;;;;;7.65;6.95;;;;;;;;;;5010870;28;20049;-72
2022/04/29 07:15:48;;;;;;;9.30;7.05;;;;;;;;;;5010947;28;20496;-72
2022/04/29 07:18:16;;;;;;;8.93;7.53;;;;;;;;;;5014665;28;20048;-72
2022/04/29 07:20:43;;;;;;;7.90;7.20;;;;;;;;;;5029217;28;20046;-71
2022/04/29 07:23:10;;;;;;;7.93;6.80;;;;;;;;;;5029567;28;20068;-71
2022/04/29 07:25:37;;;;;;;8.30;6.50;;;;;;;;;;5029061;28;20069;-71
2022/04/29 07:28:04;;;;;;;7.57;6.30;;;;;;;;;;5029138;28;20049;-72
2022/04/29 07:30:31;;;;;;;8.60;7.43;;;;;;;;;;5012498;28;20483;-77
2022/04/29 07:32:58;;;;;;;8.55;6.63;;;;;;;;;;5028614;28;20060;-71
2022/04/29 07:43:40;;;;;;;8.90;6.93;;;;;;;;;;5023858;28;20072;-68
2022/04/29 07:46:10;;;;;;;6.63;5.90;;;;;;;;;;5031855;28;20049;-69
2022/04/29 07:48:38;;;;;;;7.43;6.35;;;;;;;;;;5030689;28;20057;-69
2022/04/29 07:51:06;;;;;;;10.40;7.43;;;;;;;;;;5030429;28;20053;-69
2022/04/29 07:53:34;;;;;;;7.38;6.47;;;;;;;;;;5030573;28;20501;-71
2022/04/29 07:56:01;;;;;;;7.93;6.30;;;;;;;;;;5030651;28;20508;-70
2022/04/29 07:58:28;;;;;;;8.80;6.80;;;;;;;;;;5030041;28;20053;-70
2022/04/29 08:00:55;;;;;;;8.10;6.10;;;;;;;;;;5030467;28;20522;-69
2022/04/29 08:03:33;;;;;;;8.35;5.97;;;;;;;;;;5030911;28;20077;-69
2022/04/29 08:06:00;;;;;;;8.82;6.85;;;;;;;;;;5030378;28;20151;-70
2022/04/29 08:08:27;;;;;;;8.00;6.15;;;;;;;;;;5031138;28;20444;-69
2022/04/29 08:10:53;;;;;;;6.47;5.88;;;;;;;;;;5030374;28;20115;-70
2022/04/29 08:13:20;;;;;;;10.40;6.30;;;;;;;;;;5030189;28;20048;-69
2022/04/29 08:15:47;;;;;;;8.73;6.22;;;;;;;;;;5021834;28;20111;-71
2022/04/29 08:18:14;;;;;;;8.13;6.72;;;;;;;;;;5023186;28;20134;-74
2022/04/29 08:20:41;;;;;;;7.65;5.82;;;;;;;;;;5030168;28;20050;-69
2022/04/29 08:23:08;;;;;;;9.10;6.32;;;;;;;;;;5026261;28;20045;-69
2022/04/29 08:25:35;;;;;;;7.45;6.57;;;;;;;;;;5030402;28;20045;-69
2022/04/29 08:28:03;;;;;;;8.63;6.55;;;;;;;;;;5030034;28;20053;-69
2022/04/29 08:30:32;;;;;;;7.50;6.20;;;;;;;;;;5030425;28;20124;-69
2022/04/29 08:32:59;;;;;;;8.80;5.85;;;;;;;;;;5030305;28;20058;-70
2022/04/29 08:35:29;;;;;;;12.73;6.63;;;;;;;;;;5028889;28;20496;-69
2022/04/29 08:37:57;;;;;;;9.10;6.95;;;;;;;;;;5047491;23;20052;-65
2022/04/29 08:40:24;;;;;;;10.07;7.05;;;;;;;;;;5018116;28;20053;-66
2022/04/29 08:42:52;;;;;;;8.93;6.32;;;;;;;;;;5018736;28;20042;-66
2022/04/29 08:45:19;;;;;;;10.52;6.90;;;;;;;;;;5016421;28;20057;-66
2022/04/29 08:47:46;;;;;;;8.50;6.97;;;;;;;;;;5032335;28;20061;-65
2022/04/29 08:50:18;;;;;;;8.70;6.25;;;;;;;;;;5051947;28;20053;-65
2022/04/29 08:52:45;;;;;;;7.18;6.22;;;;;;;;;;5042184;28;20098;-66
2022/04/29 09:00:44;;;;;;;8.80;6.45;;;;;;;;;;5040045;28;20065;-66
2022/04/29 09:03:13;;;;;;;9.63;6.20;;;;;;;;;;5041213;28;20045;-66
2022/04/29 09:05:41;;;;;;;7.63;5.97;;;;;;;;;;5040239;28;20103;-65
2022/04/29 09:08:11;;;;;;;7.72;5.55;;;;;;;;;;5044655;28;20049;-65
2022/04/29 09:10:39;;;;;;;7.68;5.43;;;;;;;;;;5039863;28;20045;-66
2022/04/29 09:13:14;;;;;;;9.15;5.18;;;;;;;;;;5027101;28;20385;-66
2022/04/29 09:15:57;;;;;;;6.90;4.90;;;;;;;;;;5042298;28;20488;-66
2022/04/29 09:18:27;;;;;;;6.00;5.15;;;;;;;;;;5039933;28;20111;-66
2022/04/29 09:20:54;;;;;;;6.57;5.55;;;;;;;;;;5043478;28;20049;-66
2022/04/29 09:23:28;;;;;;;6.65;4.75;;;;;;;;;;5041950;28;20048;-66
2022/04/29 09:25:57;;;;;;;8.80;5.15;;;;;;;;;;5040369;28;20049;-66
2022/04/29 09:28:24;;;;;;;8.35;5.80;;;;;;;;;;5044820;28;20054;-66
2022/04/29 09:30:58;;;;;;;12.32;5.78;;;;;;;;;;5039616;28;20053;-66
2022/04/29 09:33:25;;;;;;;8.23;4.72;;;;;;;;;;5045512;28;20045;-66
2022/04/29 09:35:53;;;;;;;25.27;11.00;;;;;;;;;;5041399;28;20496;-66
2022/04/29 09:41:06;;;;;;;6.40;4.93;;;;;;;;;;5044139;28;20049;-66
2022/04/29 09:43:33;;;;;;;6.45;4.75;;;;;;;;;;5039662;28;20074;-66
2022/04/29 09:46:13;;;;;;;5.22;4.55;;;;;;;;;;5042033;28;20396;-66
2022/04/29 09:48:53;;;;;;;5.63;4.40;;;;;;;;;;5041565;28;20049;-66
2022/04/29 09:51:41;;;;;;;8.25;4.03;;;;;;;;;;5039560;28;20432;-66
2022/04/29 09:54:12;;;;;;;7.03;3.67;;;;;;;;;;5051496;28;20724;-66
2022/04/29 09:56:38;;;;;;;4.65;3.28;;;;;;;;;;5054366;28;20457;-66
2022/04/29 09:59:06;;;;;;;4.82;2.95;;;;;;;;;;5047469;28;20056;-66
2022/04/29 10:01:33;;;;;;;3.83;3.03;;;;;;;;;;5034292;28;20053;-66
2022/04/29 10:04:02;;;;;;;3.75;2.95;;;;;;;;;;5016680;28;20060;-66
2022/04/29 10:06:31;;;;;;;4.00;2.75;;;;;;;;;;5034177;28;20053;-66
2022/04/29 10:08:58;;;;;;;3.95;3.00;;;;;;;;;;5033163;28;20049;-66
2022/04/29 10:11:26;;;;;;;3.25;2.95;;;;;;;;;;5034204;28;20274;-66
2022/04/29 10:13:54;;;;;;;3.63;2.60;;;;;;;;;;5032937;28;20045;-66
2022/04/29 10:16:20;;;;;;;3.90;2.97;;;;;;;;;;5034091;28;20107;-66
2022/04/29 10:21:47;;;;;;;3.90;3.10;;;;;;;;;;5066714;28;20049;-66
2022/04/29 10:24:15;;;;;;;3.92;2.60;;;;;;;;;;5053750;28;20067;-66
2022/04/29 10:26:41;;;;;;;3.53;3.03;;;;;;;;;;5053804;28;20132;-66
2022/04/29 10:29:08;;;;;;;3.17;2.88;;;;;;;;;;5053668;28;20095;-66
2022/04/29 10:31:35;;;;;;;4.25;2.53;;;;;;;;;;5069326;28;20053;-66
2022/04/29 10:34:29;;;;;;;4.72;2.80;;;;;;;;;;5053658;28;20049;-66
2022/04/29 10:36:57;;;;;;;3.10;2.80;;;;;;;;;;5053681;28;20053;-66
2022/04/29 10:39:24;;;;;;;4.90;2.60;;;;;;;;;;5053687;28;20071;-66
2022/04/29 10:42:06;;;;;;;4.00;2.88;;;;;;;;;;5053388;28;20496;-66
2022/04/29 10:44:32;;;;;;;2.88;2.40;;;;;;;;;;5053468;28;20108;-66
2022/04/29 10:47:36;;;;;;;4.15;2.92;;;;;;;;;;5052327;28;20056;-66
2022/04/29 10:50:20;;;;;;;;;;;;;;;;;;5053956;28;20052;-66
2022/04/29 10:52:59;;;;;;;5.70;2.55;;;;;;;;;;5053387;28;19950;-66
2022/04/29 10:55:26;;;;;;;3.05;2.53;;;;;;;;;;5053856;28;20048;-66
2022/04/29 10:57:56;;;;;;;2.80;2.47;;;;;;;;;;5053368;28;20060;-66
2022/04/29 11:00:24;;;;;;;3.22;2.10;;;;;;;;;;5068236;28;20052;-66
2022/04/29 11:02:51;;;;;;;2.40;2.20;;;;;;;;;;5051804;28;20102;-66
2022/04/29 11:05:35;;;;;;;3.20;2.33;;;;;;;;;;5053268;28;20049;-66
2022/04/29 11:08:09;;;;;;;4.05;2.63;;;;;;;;;;5043200;28;20049;-66
2022/04/29 11:10:57;;;;;;;3.50;2.72;;;;;;;;;;5032933;28;20053;-66
2022/04/29 11:13:26;;;;;;;3.85;2.30;;;;;;;;;;5033345;28;20052;-65
2022/04/29 11:15:52;;;;;;;2.85;2.58;;;;;;;;;;5031903;28;20056;-65
2022/04/29 11:18:23;;;;;;;4.10;2.65;;;;;;;;;;5043581;28;20103;-65
2022/04/29 11:20:57;;;;;;;2.95;2.20;;;;;;;;;;5052826;28;20499;-65
2022/04/29 11:26:15;;;;;;;4.38;2.45;;;;;;;;;;5052691;28;20053;-65
2022/04/29 11:28:41;;;;;;;2.65;1.92;;;;;;;;;;5038661;28;20049;-65
2022/04/29 11:31:09;;;;;;;3.30;2.17;;;;;;;;;;5032698;28;20522;-65
2022/04/29 11:33:38;;;;;;;3.28;2.45;;;;;;;;;;5032595;28;20474;-65
2022/04/29 11:36:06;;;;;;;2.83;2.30;;;;;;;;;;5032571;28;20057;-65
2022/04/29 11:38:40;;;;;;;2.58;2.38;;;;;;;;;;5045085;28;20091;-65
2022/04/29 11:41:07;;;;;;;3.55;2.10;;;;;;;;;;5052638;28;20055;-65
2022/04/29 11:43:34;;;;;;;4.35;2.45;;;;;;;;;;5052149;28;20083;-65
2022/04/29 11:46:06;;;;;;;3.83;2.30;;;;;;;;;;5052596;28;20059;-65
2022/04/29 11:48:36;;;;;;;4.00;2.43;;;;;;;;;;5051424;28;20045;-65
2022/04/29 11:51:04;;;;;;;2.38;2.15;;;;;;;;;;5052349;28;20053;-65
2022/04/29 11:53:32;;;;;;;2.15;1.90;;;;;;;;;;5052380;28;20110;-65
2022/04/29 11:55:59;;;;;;;3.25;2.10;;;;;;;;;;5052428;28;20519;-65
2022/04/29 11:58:30;;;;;;;2.60;2.20;;;;;;;;;;5040826;28;20060;-65
2022/04/29 12:00:56;;;;;;;2.30;2.05;;;;;;;;;;5032062;28;20136;-65
2022/04/29 12:03:25;;;;;;;2.28;2.08;;;;;;;;;;5032241;28;20049;-65
2022/04/29 12:05:52;;;;;;;1.80;1.63;;;;;;;;;;5032311;28;20053;-65
2022/04/29 12:08:19;;;;;;;2.85;2.20;;;;;;;;;;5042586;28;20048;-65
2022/04/29 12:10:47;;;;;;;4.38;2.05;;;;;;;;;;5050823;28;20049;-65
2022/04/29 12:13:13;;;;;;;3.40;1.90;;;;;;;;;;5066752;28;20056;-65
2022/04/29 12:15:44;;;;;;;1.98;1.80;;;;;;;;;;5050016;28;20523;-65
2022/04/29 12:18:14;;;;;;;2.65;1.70;;;;;;;;;;5032187;28;20045;-65
2022/04/29 12:20:45;;;;;;;2.75;1.92;;;;;;;;;;5040004;28;20098;-65
2022/04/29 12:23:19;;;;;;;3.28;1.80;;;;;;;;;;5051904;28;20057;-65
2022/04/29 12:25:47;;;;;;;3.25;1.83;;;;;;;;;;5051468;28;20049;-65
2022/04/29 12:28:25;;;;;;;2.67;1.90;;;;;;;;;;5051913;28;20049;-65
2022/04/29 12:36:53;;;;;;;3.05;2.00;;;;;;;;;;5032998;28;20053;-67
2022/04/29 12:39:33;;;;;;;4.60;1.90;;;;;;;;;;5038905;28;20051;-65
2022/04/29 12:42:07;;;;;;;2.63;1.83;;;;;;;;;;5040772;28;20519;-71
2022/04/29 12:47:43;;;;;;;4.03;2.15;;;;;;;;;;5041580;28;20059;-71
2022/04/29 12:50:20;;;;;;;2.33;1.90;;;;;;;;;;5041479;28;21049;-70
2022/04/29 12:53:13;;;;;;;1.88;1.67;;;;;;;;;;5037727;28;20050;-71
2022/04/29 12:55:43;;;;;;;2.60;1.92;;;;;;;;;;5037931;28;20053;-71
2022/04/29 12:58:14;;;;;;;1.92;1.50;;;;;;;;;;5041379;28;20053;-68
2022/04/29 13:00:54;;;;;;;1.77;1.67;;;;;;;;;;5036351;28;20675;-69
2022/04/29 13:03:30;;;;;;;2.70;1.70;;;;;;;;;;5042420;28;20076;-70
2022/04/29 13:05:58;;;;;;;2.03;1.80;;;;;;;;;;5038890;28;20080;-68
2022/04/29 13:08:24;;;;;;;2.38;1.63;;;;;;;;;;5039654;28;20136;-67
2022/04/29 13:10:51;;;;;;;1.95;1.70;;;;;;;;;;5048610;28;20049;-70
2022/04/29 13:13:19;;;;;;;2.63;1.95;;;;;;;;;;5041385;28;20049;-72
2022/04/29 13:15:47;;;;;;;2.38;1.73;;;;;;;;;;5042085;28;20517;-73
2022/04/29 13:18:16;;;;;;;3.50;2.13;;;;;;;;;;5040288;28;20104;-75
2022/04/29 13:20:43;;;;;;;2.72;2.00;;;;;;;;;;5040133;28;20048;-73
2022/04/29 13:23:11;;;;;;;1.80;1.70;;;;;;;;;;5044107;28;20049;-70
2022/04/29 13:25:41;;;;;;;2.28;1.60;;;;;;;;;;5036747;28;20129;-66
2022/04/29 13:28:09;;;;;;;2.17;1.95;;;;;;;;;;5041141;28;20049;-65
2022/04/29 13:30:37;;;;;;;1.83;1.60;;;;;;;;;;5035842;28;20100;-65
2022/04/29 13:33:04;;;;;;;3.92;1.85;;;;;;;;;;5041048;28;20048;-65
2022/04/29 13:35:30;;;;;;;3.45;2.33;;;;;;;;;;5036353;28;20500;-65
2022/04/29 13:37:57;;;;;;;2.95;2.08;;;;;;;;;;5037794;28;20082;-65
2022/04/29 13:40:24;;;;;;;2.35;1.75;;;;;;;;;;5036621;28;20049;-65
2022/04/29 13:42:52;;;;;;;4.28;1.90;;;;;;;;;;5037441;28;20522;-65
2022/04/29 13:45:20;;;;;;;5.63;2.40;;;;;;;;;;5036764;28;20088;-65
2022/04/29 13:47:47;;;;;;;4.15;2.08;;;;;;;;;;5036755;28;20351;-65
2022/04/29 13:50:14;;;;;;;3.63;1.90;;;;;;;;;;5041451;28;20076;-65
2022/04/29 13:55:26;;;;;;;4.95;2.85;;;;;;;;;;5042584;28;20044;-66
2022/04/29 13:57:53;;;;;;;2.90;2.30;;;;;;;;;;5040086;28;20063;-65
2022/04/29 14:00:20;;;;;;;2.88;2.58;;;;;;;;;;5040454;28;20088;-66
2022/04/29 14:02:46;;;;;;;4.07;2.67;;;;;;;;;;5040476;28;20048;-65
2022/04/29 14:05:14;;;;;;;2.55;2.35;;;;;;;;;;5039838;28;20472;-65
2022/04/29 14:07:42;;;;;;;3.08;2.10;;;;;;;;;;5042545;28;20424;-64
2022/04/29 14:10:11;;;;;;;4.63;1.95;;;;;;;;;;5038928;28;20055;-64
2022/04/29 14:12:38;;;;;;;3.40;2.17;;;;;;;;;;5041469;28;20064;-65
2022/04/29 14:15:06;;;;;;;4.20;2.47;;;;;;;;;;5039545;28;20085;-65
2022/04/29 14:17:33;;;;;;;2.85;2.65;;;;;;;;;;5041104;28;20053;-65
2022/04/29 14:20:00;;;;;;;2.50;2.00;;;;;;;;;;5039507;28;20500;-65
2022/04/29 14:22:26;;;;;;;2.63;2.42;;;;;;;;;;5040739;28;20060;-65
2022/04/29 14:24:53;;;;;;;3.58;2.85;;;;;;;;;;5039306;28;20049;-65
2022/04/29 14:27:20;;;;;;;2.90;2.60;;;;;;;;;;5043521;28;20136;-65
2022/04/29 14:29:48;;;;;;;4.25;2.33;;;;;;;;;;5039552;28;20618;-65
2022/04/29 14:32:21;;;;;;;3.78;1.85;;;;;;;;;;5040942;28;20484;-65
2022/04/29 14:34:49;;;;;;;2.55;2.28;;;;;;;;;;5043940;28;20041;-65
2022/04/29 14:37:16;;;;;;;3.10;1.70;;;;;;;;;;5044416;28;20281;-66
2022/04/29 14:39:43;;;;;;;3.65;2.30;;;;;;;;;;5036745;28;20423;-72
2022/04/29 14:42:11;;;;;;;4.05;2.25;;;;;;;;;;5037831;28;20053;-75
2022/04/29 14:44:38;;;;;;;2.90;2.30;;;;;;;;;;5040139;28;20044;-74
2022/04/29 14:47:06;;;;;;;3.75;2.30;;;;;;;;;;5040463;28;20049;-73
2022/04/29 14:49:33;;;;;;;3.58;2.60;;;;;;;;;;5041442;28;20052;-74
2022/04/29 14:52:00;;;;;;;4.32;2.78;;;;;;;;;;5039081;28;20056;-76
2022/04/29 14:54:27;;;;;;;2.92;2.55;;;;;;;;;;5041732;28;20052;-74
2022/04/29 14:56:54;;;;;;;3.83;2.30;;;;;;;;;;5040516;28;20046;-74
2022/04/29 14:59:21;;;;;;;3.28;2.10;;;;;;;;;;5047485;28;20072;-74
2022/04/29 15:01:48;;;;;;;2.75;2.40;;;;;;;;;;5039484;28;20049;-77
2022/04/29 15:04:15;;;;;;;2.50;2.30;;;;;;;;;;5050720;28;20534;-73
2022/04/29 15:06:48;;;;;;;4.25;2.35;;;;;;;;;;5038335;28;20049;-71
2022/04/29 15:17:53;;;;;;;2.35;2.17;;;;;;;;;;5038247;28;20275;-71
2022/04/29 15:20:20;;;;;;;2.80;2.60;;;;;;;;;;5042308;28;20466;-67
2022/04/29 15:22:48;;;;;;;3.38;2.70;;;;;;;;;;5038249;28;20456;-70
2022/04/29 15:25:17;;;;;;;4.85;2.83;;;;;;;;;;5041290;28;20068;-74
2022/04/29 15:27:44;;;;;;;2.97;2.47;;;;;;;;;;5037662;28;20485;-70
2022/04/29 15:30:12;;;;;;;5.25;2.70;;;;;;;;;;5043328;28;20051;-71
2022/04/29 15:32:38;;;;;;;4.35;2.33;;;;;;;;;;5039324;28;20591;-74
2022/04/29 15:35:06;;;;;;;3.13;2.83;;;;;;;;;;5044020;28;20041;-74
2022/04/29 15:37:33;;;;;;;3.13;2.80;;;;;;;;;;5022383;28;20492;-70
2022/04/29 15:40:00;;;;;;;3.97;3.55;;;;;;;;;;5044195;28;20071;-70